»·PEaware :: N8573X KMFR-KOTH

N8573X :: KMFR-KOTH

FLIGHT INFORMATION

Flight Status: Arrived
Operator: Privately registered:
United States
More flights under this callsign
Pilot: Tommy H. (35970)
Aircraft: PIPER PA-28 CHEROKEE ARCHER
(P28A)
More flights by this aircraft type
Origin: KMFR Rogue Valley Intl-Medford
United States
Destination: KOTH North Bend Mun
United States
More flights between these airports :: More routes between these airports
Route:
File this flight plan on PilotEdge
Remarks:
Altitude:
(Current/Filed)
0ft
Speed:
(Current/Filed)
0kts
Departed: 21-Nov-21 08:49 AM
Arrived: 21-Nov-21 09:49 AM
Distance/Time
Traveled:
87nm/1:00
Distance/Time
To Go:
Arrived

Flight Plot

Page will automatically refresh every two minutes.

Flight plan parsing failed; only flown route is shown


Map Options




Map Legend


Flown Route
Filed Route
Departure Airport
Arrival Airport
Navaid (VOR, NDB)
Fix

Horizontal Profiles

Position Reports

Time Latitude Longitude Heading Altitude Ground
Speed
21-Nov-21 08:47 42.468178 -122.992770 319 6611ft 114kts
21-Nov-21 08:48 42.486379 -123.016770 315 6447ft 120kts
21-Nov-21 08:49 42.503483 -123.041655 314 6429ft 115kts
21-Nov-21 08:50 42.521169 -123.063489 318 6569ft 113kts
21-Nov-21 08:51 42.540007 -123.086746 321 6548ft 119kts
21-Nov-21 08:52 42.559753 -123.109640 318 6521ft 119kts
21-Nov-21 08:53 42.578512 -123.132950 317 6491ft 119kts
21-Nov-21 08:54 42.589081 -123.146323 316 6452ft 119kts
21-Nov-21 08:55 42.605481 -123.167390 316 6400ft 118kts
21-Nov-21 08:56 42.622626 -123.189545 316 6389ft 117kts
21-Nov-21 08:57 42.639564 -123.211499 316 6413ft 116kts
21-Nov-21 08:58 42.656437 -123.233344 316 6451ft 114kts
21-Nov-21 08:59 42.672853 -123.254646 316 6497ft 115kts
21-Nov-21 09:00 42.689282 -123.275965 316 6499ft 116kts
21-Nov-21 09:01 42.705971 -123.297648 316 6504ft 116kts
21-Nov-21 09:02 42.722912 -123.319347 321 6507ft 116kts
21-Nov-21 09:03 42.740468 -123.339294 317 6505ft 116kts
21-Nov-21 09:04 42.756983 -123.361948 314 6507ft 116kts
21-Nov-21 09:05 42.772105 -123.383124 314 6507ft 116kts
21-Nov-21 09:06 42.784449 -123.400366 314 6506ft 116kts
21-Nov-21 09:07 42.800662 -123.422955 314 6505ft 116kts
21-Nov-21 09:08 42.816677 -123.445200 314 6503ft 116kts
21-Nov-21 09:09 42.832665 -123.467342 314 6500ft 116kts
21-Nov-21 09:10 42.848700 -123.489484 314 6497ft 116kts
21-Nov-21 09:11 42.865160 -123.512050 316 6495ft 116kts
21-Nov-21 09:12 42.882099 -123.533640 316 6489ft 116kts
21-Nov-21 09:13 42.899049 -123.555283 316 6485ft 116kts
21-Nov-21 09:14 42.911507 -123.571122 317 6483ft 116kts
21-Nov-21 09:15 42.928661 -123.592901 317 6441ft 118kts
21-Nov-21 09:16 42.945882 -123.614713 317 6413ft 117kts
21-Nov-21 09:17 42.963264 -123.636660 317 6410ft 116kts
21-Nov-21 09:18 42.980456 -123.658296 316 6459ft 115kts
21-Nov-21 09:19 42.997809 -123.680068 316 6490ft 116kts
21-Nov-21 09:20 43.015343 -123.701996 317 6521ft 116kts
21-Nov-21 09:21 43.033030 -123.724166 316 6550ft 116kts
21-Nov-21 09:22 43.050406 -123.747254 315 6574ft 116kts
21-Nov-21 09:23 43.067528 -123.770013 315 6573ft 117kts
21-Nov-21 09:24 43.084586 -123.792619 315 6533ft 118kts
21-Nov-21 09:25 43.101402 -123.815285 314 6507ft 117kts
21-Nov-21 09:26 43.118135 -123.838113 314 6480ft 117kts
21-Nov-21 09:27 43.134990 -123.861038 314 6453ft 117kts
21-Nov-21 09:28 43.151656 -123.883637 314 6428ft 117kts
21-Nov-21 09:29 43.168405 -123.906280 315 6403ft 117kts
21-Nov-21 09:30 43.184939 -123.928634 314 6379ft 117kts
21-Nov-21 09:31 43.201436 -123.951549 314 6531ft 112kts
21-Nov-21 09:32 43.218486 -123.975121 313 6599ft 115kts
21-Nov-21 09:33 43.235868 -123.997159 317 6522ft 115kts
21-Nov-21 09:34 43.255499 -124.014049 340 6077ft 114kts
21-Nov-21 09:35 43.276377 -124.028295 335 5658ft 113kts
21-Nov-21 09:36 43.296204 -124.044055 331 5260ft 112kts
21-Nov-21 09:37 43.315702 -124.059688 331 4881ft 112kts
21-Nov-21 09:38 43.334078 -124.076670 327 4508ft 111kts
21-Nov-21 09:39 43.352323 -124.093818 324 4153ft 111kts
21-Nov-21 09:40 43.368581 -124.114101 317 3784ft 108kts
21-Nov-21 09:41 43.384673 -124.133967 321 3161ft 110kts
21-Nov-21 09:42 43.401989 -124.151459 328 2530ft 108kts
21-Nov-21 09:43 43.418834 -124.168351 321 1836ft 108kts
21-Nov-21 09:44 43.433897 -124.185450 321 1257ft 83kts
21-Nov-21 09:45 43.438517 -124.202663 244 1096ft 79kts
21-Nov-21 09:46 43.430620 -124.221932 239 522ft 77kts
21-Nov-21 09:47 43.422635 -124.241311 240 54ft 73kts
21-Nov-21 09:48 43.418348 -124.251577 187 16ft 13kts
21-Nov-21 09:49 43.417618 -124.251127 148 22ft 4kts
21-Nov-21 09:50 43.418693 -124.247837 58 20ft 13kts
21-Nov-21 09:51 43.418045 -124.246237 150 22ft 10kts
21-Nov-21 09:52 43.416921 -124.246338 236 24ft 2kts
21-Nov-21 09:53 43.417250 -124.246832 334 27ft 0kts
21-Nov-21 09:54 43.417250 -124.246832 334 27ft 0kts

Navigation Log

Ident Type
Flight plan parsing failed, navigation log unavailable